»·PEaware :: N912NB KSBP-KBLH

N912NB :: KSBP-KBLH

FLIGHT INFORMATION

Flight Status: Arrived
Operator: Privately registered:
United States
More flights under this callsign
Pilot: Patricio R. (14780)
Aircraft: BOEING 737-200
(B732)
More flights by this aircraft type
Origin: KSBP San Luis Co Regl
United States
Destination: KBLH Blythe
United States
More flights between these airports :: More routes between these airports
Route: CREPE3 MQO V27 GVO V12 PMD V137 PSP V16 BLH
File this flight plan on PilotEdge
Remarks:
Altitude:
(Current/Filed)
29,000ft
Speed:
(Current/Filed)
448kts
Departed: 29-Sep-18 10:04 AM
Arrived: 29-Sep-18 11:16 AM
Distance/Time
Traveled:
309nm/1:11
Distance/Time
To Go:
Arrived

Flight Plot

Page will automatically refresh every two minutes.

Flight plan parsing failed; only flown route is shown


Map Options




Map Legend


Flown Route
Filed Route
Departure Airport
Arrival Airport
Navaid (VOR, NDB)
Fix

Horizontal Profiles

Position Reports

Time Latitude Longitude Heading Altitude Ground
Speed
29-Sep-18 09:52 35.236889 -120.636830 128 211ft 0kts
29-Sep-18 09:53 35.236889 -120.636830 128 211ft 0kts
29-Sep-18 09:54 35.236889 -120.636830 128 211ft 0kts
29-Sep-18 09:55 35.236889 -120.636830 128 211ft 0kts
29-Sep-18 09:56 35.236889 -120.636830 128 211ft 0kts
29-Sep-18 09:57 35.236889 -120.636830 128 211ft 0kts
29-Sep-18 09:58 35.236889 -120.636830 128 211ft 0kts
29-Sep-18 09:59 35.236889 -120.636830 128 211ft 0kts
29-Sep-18 10:00 35.236628 -120.636409 128 213ft 8kts
29-Sep-18 10:01 35.235097 -120.634933 123 217ft 9kts
29-Sep-18 10:02 35.233391 -120.632221 177 219ft 0kts
29-Sep-18 10:03 35.233391 -120.632221 177 219ft 0kts
29-Sep-18 10:04 35.233342 -120.632227 188 219ft 0kts
29-Sep-18 10:05 35.233342 -120.632227 188 219ft 0kts
29-Sep-18 10:06 35.237191 -120.640565 304 200ft 127kts
29-Sep-18 10:07 35.265509 -120.692167 302 2436ft 212kts
29-Sep-18 10:08 35.297273 -120.754292 302 5560ft 217kts
29-Sep-18 10:09 35.333843 -120.823416 302 7563ft 267kts
29-Sep-18 10:10 35.331322 -120.907342 246 10385ft 267kts
29-Sep-18 10:11 35.291067 -120.980330 197 12717ft 274kts
29-Sep-18 10:12 35.233803 -120.927198 99 14727ft 324kts
29-Sep-18 10:13 35.271449 -120.823091 75 16481ft 347kts
29-Sep-18 10:14 35.244328 -120.724581 151 18113ft 312kts
29-Sep-18 10:15 35.170223 -120.669040 155 19703ft 316kts
29-Sep-18 10:16 35.095988 -120.608611 151 21135ft 326kts
29-Sep-18 10:17 35.022416 -120.542475 150 22406ft 333kts
29-Sep-18 10:18 34.947792 -120.473801 150 23497ft 341kts
29-Sep-18 10:19 34.871383 -120.403672 150 24497ft 348kts
29-Sep-18 10:20 34.793776 -120.332863 150 25488ft 354kts
29-Sep-18 10:21 34.715104 -120.259657 150 26342ft 358kts
29-Sep-18 10:22 34.635316 -120.186504 150 27112ft 363kts
29-Sep-18 10:23 34.554277 -120.112127 150 27813ft 367kts
29-Sep-18 10:24 34.495500 -120.011055 97 28352ft 415kts
29-Sep-18 10:25 34.510403 -119.869913 94 28883ft 422kts
29-Sep-18 10:26 34.506925 -119.726329 101 29009ft 432kts
29-Sep-18 10:27 34.495872 -119.579732 100 29002ft 439kts
29-Sep-18 10:28 34.506235 -119.434003 60 29018ft 453kts
29-Sep-18 10:29 34.548445 -119.294305 85 29007ft 441kts
29-Sep-18 10:30 34.562839 -119.151083 89 29007ft 436kts
29-Sep-18 10:31 34.573292 -119.004923 90 29010ft 434kts
29-Sep-18 10:32 34.582845 -118.859837 89 29017ft 432kts
29-Sep-18 10:33 34.592148 -118.714727 89 29029ft 430kts
29-Sep-18 10:34 34.601110 -118.570653 89 29043ft 428kts
29-Sep-18 10:35 34.610040 -118.426952 88 29029ft 427kts
29-Sep-18 10:36 34.618236 -118.287778 90 29008ft 427kts
29-Sep-18 10:37 34.626353 -118.144284 89 29014ft 425kts
29-Sep-18 10:38 34.625304 -118.003317 118 29029ft 407kts
29-Sep-18 10:39 34.561224 -117.895425 129 29018ft 398kts
29-Sep-18 10:40 34.503102 -117.780797 125 29025ft 400kts
29-Sep-18 10:41 34.447952 -117.663269 124 29024ft 401kts
29-Sep-18 10:42 34.393558 -117.545824 124 29020ft 402kts
29-Sep-18 10:43 34.338790 -117.427589 124 29027ft 402kts
29-Sep-18 10:44 34.284379 -117.310407 125 29026ft 402kts
29-Sep-18 10:45 34.229636 -117.192967 125 29032ft 401kts
29-Sep-18 10:46 34.174860 -117.076107 125 29033ft 400kts
29-Sep-18 10:47 34.119992 -116.959445 124 29034ft 400kts
29-Sep-18 10:48 34.065004 -116.842617 124 29024ft 400kts
29-Sep-18 10:49 34.009900 -116.726208 124 28970ft 401kts
29-Sep-18 10:50 33.955693 -116.608743 123 28926ft 402kts
29-Sep-18 10:51 33.901014 -116.492388 123 28706ft 391kts
29-Sep-18 10:52 33.854780 -116.375304 101 26592ft 396kts
29-Sep-18 10:53 33.844864 -116.245718 102 24702ft 383kts
29-Sep-18 10:54 33.827609 -116.121862 105 23886ft 376kts
29-Sep-18 10:55 33.807799 -115.998043 105 23465ft 370kts
29-Sep-18 10:56 33.791290 -115.897888 105 21861ft 364kts
29-Sep-18 10:57 33.768503 -115.761181 105 19794ft 352kts
29-Sep-18 10:58 33.752579 -115.666260 105 18362ft 344kts
29-Sep-18 10:59 33.730791 -115.537176 106 16401ft 333kts
29-Sep-18 11:00 33.715524 -115.447235 106 15040ft 325kts
29-Sep-18 11:01 33.695586 -115.330759 107 14976ft 300kts
29-Sep-18 11:02 33.681240 -115.249167 107 14995ft 301kts
29-Sep-18 11:03 33.661301 -115.134460 107 15010ft 302kts
29-Sep-18 11:04 33.646999 -115.052186 106 15010ft 303kts
29-Sep-18 11:05 33.629810 -114.953652 106 14801ft 296kts
29-Sep-18 11:06 33.613033 -114.857108 106 13277ft 293kts
29-Sep-18 11:07 33.596843 -114.762478 106 11902ft 287kts
29-Sep-18 11:08 33.590070 -114.667311 97 10518ft 285kts
29-Sep-18 11:09 33.584952 -114.573310 97 9161ft 280kts
29-Sep-18 11:10 33.585348 -114.483571 63 7947ft 263kts
29-Sep-18 11:11 33.642227 -114.464176 344 6842ft 196kts
29-Sep-18 11:12 33.689398 -114.488496 291 4842ft 177kts
29-Sep-18 11:13 33.678218 -114.537261 244 3225ft 155kts
29-Sep-18 11:14 33.661144 -114.583679 244 2128ft 151kts
29-Sep-18 11:15 33.642424 -114.626802 236 1815ft 141kts
29-Sep-18 11:16 33.621333 -114.664731 242 977ft 134kts
29-Sep-18 11:17 33.616561 -114.708434 266 404ft 127kts
29-Sep-18 11:18 33.616459 -114.727563 218 402ft 13kts
29-Sep-18 11:19 33.615150 -114.723542 90 400ft 18kts
29-Sep-18 11:20 33.615128 -114.715567 87 400ft 21kts
29-Sep-18 11:21 33.614276 -114.714128 328 399ft 0kts
29-Sep-18 11:22 33.614299 -114.714127 359 399ft 0kts

Navigation Log

Ident Type
Flight plan parsing failed, navigation log unavailable